Time;durP1;ratioP1;P1;durP2;ratioP2;P2;SDS_P1;SDS_P2;PMS_P1;PMS_P2;Temp;Humidity;BMP_temperature;BMP_pressure;BME280_temperature;BME280_humidity;BME280_pressure;Samples;Min_cycle;Max_cycle;Signal;HPM_P1;HPM_P2
2024/01/26 00:02:04;;;;;;;22.23;4.97;;;;;;;3.71;100.00;102282.78;4936054;28;20631;-73
2024/01/26 00:04:30;;;;;;;27.50;5.68;;;;;;;3.72;100.00;102273.81;4943986;28;20045;-73
2024/01/26 00:06:56;;;;;;;;;;;;;;;3.73;100.00;102276.31;4938074;28;20095;-72
2024/01/26 00:09:21;;;;;;;25.85;4.63;;;;;;;3.73;100.00;102276.31;4940265;28;19919;-71
2024/01/26 00:11:47;;;;;;;20.33;4.53;;;;;;;3.74;100.00;102275.31;4941262;28;20039;-71
2024/01/26 00:14:13;;;;;;;22.15;4.43;;;;;;;3.77;100.00;102269.63;4930784;28;20046;-72
2024/01/26 00:16:39;;;;;;;23.27;5.05;;;;;;;3.77;100.00;102261.66;4940050;28;20039;-72
2024/01/26 00:19:05;;;;;;;19.83;4.50;;;;;;;3.79;100.00;102261.47;4937985;28;20686;-71
2024/01/26 00:21:32;;;;;;;20.42;5.15;;;;;;;3.80;100.00;102260.50;4938960;28;21634;-72
2024/01/26 00:23:58;;;;;;;19.02;4.85;;;;;;;3.81;100.00;102251.53;4937056;28;20039;-72
2024/01/26 00:26:24;;;;;;;28.10;5.85;;;;;;;3.85;100.00;102250.13;4929472;29;20046;-73
2024/01/26 00:28:49;;;;;;;28.55;5.60;;;;;;;3.84;100.00;102240.53;4938889;28;20032;-72
2024/01/26 00:31:16;;;;;;;27.05;5.78;;;;;;;3.82;100.00;102245.22;4938515;28;20556;-70
2024/01/26 00:33:42;;;;;;;27.83;5.90;;;;;;;3.84;100.00;102246.66;4938740;28;20035;-71
2024/01/26 00:36:08;;;;;;;22.95;6.18;;;;;;;3.83;100.00;102244.19;4939920;28;20050;-71
2024/01/26 00:38:34;;;;;;;23.02;5.13;;;;;;;3.85;100.00;102242.16;4918825;28;20031;-72
2024/01/26 00:40:59;;;;;;;19.27;6.13;;;;;;;3.88;100.00;102247.13;4932821;28;20087;-72
2024/01/26 00:43:25;;;;;;;21.85;5.68;;;;;;;3.88;100.00;102241.81;4922277;29;20551;-72
2024/01/26 00:45:50;;;;;;;24.23;5.85;;;;;;;3.91;100.00;102243.25;4940067;28;20043;-70
2024/01/26 00:48:16;;;;;;;20.55;5.38;;;;;;;3.92;100.00;102243.06;4941502;28;20525;-69
2024/01/26 00:50:42;;;;;;;24.58;6.47;;;;;;;3.94;100.00;102230.47;4940844;28;20133;-71
2024/01/26 00:53:08;;;;;;;28.52;5.60;;;;;;;3.96;100.00;102230.25;4938865;28;20043;-71
2024/01/26 00:55:34;;;;;;;25.02;6.00;;;;;;;3.98;100.00;102223.75;4925746;29;20867;-70
2024/01/26 00:58:00;;;;;;;22.33;5.38;;;;;;;4.00;100.00;102226.22;4938671;28;20039;-71
2024/01/26 01:00:26;;;;;;;27.17;6.50;;;;;;;4.02;100.00;102222.38;4940576;28;20085;-70
2024/01/26 01:02:53;;;;;;;30.70;6.18;;;;;;;4.02;100.00;102211.78;4941336;28;20050;-70
2024/01/26 01:05:19;;;;;;;22.60;6.20;;;;;;;4.05;100.00;102214.03;4937902;28;20206;-72
2024/01/26 01:07:45;;;;;;;22.90;6.18;;;;;;;4.06;100.00;102197.13;4940420;28;20039;-71
2024/01/26 01:10:11;;;;;;;24.38;5.78;;;;;;;4.09;100.00;102201.22;4937215;28;20032;-71
2024/01/26 01:12:41;;;;;;;29.83;6.82;;;;;;;4.10;100.00;102198.38;4941555;28;20039;-71
2024/01/26 01:15:11;;;;;;;26.08;6.28;;;;;;;4.14;100.00;102193.53;4939553;28;20572;-71
2024/01/26 01:17:48;;;;;;;22.92;6.72;;;;;;;4.16;100.00;102201.28;4939089;28;20047;-72
2024/01/26 01:20:14;;;;;;;20.85;6.15;;;;;;;4.17;100.00;102203.72;4937556;28;20039;-70
2024/01/26 01:22:47;;;;;;;24.83;6.40;;;;;;;4.18;100.00;102196.59;4929486;28;20070;-72
2024/01/26 01:25:13;;;;;;;33.78;6.93;;;;;;;4.19;100.00;102191.09;4940059;28;20066;-73
2024/01/26 01:27:39;;;;;;;20.85;6.05;;;;;;;4.20;100.00;102192.75;4926261;28;20708;-72
2024/01/26 01:30:06;;;;;;;22.80;5.28;;;;;;;4.22;100.00;102196.03;4939970;28;20417;-71
2024/01/26 01:32:33;;;;;;;27.33;6.65;;;;;;;4.24;100.00;102198.50;4944685;28;20121;-72
2024/01/26 01:34:58;;;;;;;21.58;6.47;;;;;;;4.24;100.00;102187.88;4943495;28;20035;-71
2024/01/26 01:37:24;;;;;;;25.23;7.25;;;;;;;4.24;100.00;102187.88;4946339;28;20055;-73
2024/01/26 01:39:50;;;;;;;26.92;6.35;;;;;;;4.24;100.00;102177.28;4921735;28;20043;-73
2024/01/26 01:42:16;;;;;;;26.33;6.82;;;;;;;4.24;100.00;102172.78;4924556;29;20043;-71
2024/01/26 01:44:45;;;;;;;27.55;5.80;;;;;;;4.24;100.00;102169.31;4922940;28;20044;-73
2024/01/26 01:47:13;;;;;;;24.58;5.65;;;;;;;4.26;100.00;102164.63;4940629;28;20038;-73
2024/01/26 01:49:39;;;;;;;24.17;7.07;;;;;;;4.26;100.00;102162.78;4937846;28;20031;-73
2024/01/26 01:52:08;;;;;;;20.00;5.80;;;;;;;4.28;100.00;102165.28;4934782;28;20039;-72
2024/01/26 01:54:34;;;;;;;26.55;6.43;;;;;;;4.28;100.00;102157.31;4937877;28;20067;-72
2024/01/26 01:57:04;;;;;;;25.85;6.15;;;;;;;4.28;100.00;102150.19;4938655;28;20039;-72
2024/01/26 01:59:31;;;;;;;27.33;6.63;;;;;;;4.28;100.00;102152.03;4953177;28;20035;-72
2024/01/26 02:01:56;;;;;;;29.50;6.90;;;;;;;4.31;100.00;102151.63;4938491;28;20031;-71
2024/01/26 02:04:22;;;;;;;27.13;7.07;;;;;;;4.31;100.00;102147.13;4940004;28;20043;-73
2024/01/26 02:06:54;;;;;;;21.70;6.03;;;;;;;4.32;100.00;102147.94;4939604;28;20079;-72
2024/01/26 02:09:20;;;;;;;24.95;6.55;;;;;;;4.33;100.00;102136.31;4923540;29;20513;-71
2024/01/26 02:11:46;;;;;;;25.58;6.95;;;;;;;4.32;100.00;102134.69;4938673;28;20027;-73
2024/01/26 02:14:12;;;;;;;26.48;7.47;;;;;;;4.32;100.00;102126.72;4932047;28;20494;-71
2024/01/26 02:16:38;;;;;;;23.65;6.55;;;;;;;4.31;100.00;102125.09;4937292;28;20028;-71
2024/01/26 02:19:03;;;;;;;25.70;7.07;;;;;;;4.31;100.00;102125.91;4935107;28;20699;-72
2024/01/26 02:21:29;;;;;;;23.38;6.45;;;;;;;4.31;100.00;102119.78;4920727;29;20598;-73
2024/01/26 02:23:55;;;;;;;26.60;6.88;;;;;;;4.33;100.00;102123.06;4933560;28;20046;-73
2024/01/26 02:26:20;;;;;;;25.70;6.90;;;;;;;4.34;100.00;102114.13;4942037;28;20099;-73
2024/01/26 02:28:45;;;;;;;30.48;8.23;;;;;;;4.34;100.00;102109.63;4937227;28;20122;-73
2024/01/26 02:31:11;;;;;;;35.88;7.90;;;;;;;4.36;100.00;102104.13;4938173;28;20835;-73
2024/01/26 02:33:37;;;;;;;27.25;7.18;;;;;;;4.36;100.00;102098.81;4935896;28;20126;-72
2024/01/26 02:36:03;;;;;;;30.45;8.27;;;;;;;4.38;100.00;102099.44;4928286;28;20678;-72
2024/01/26 02:38:29;;;;;;;33.78;7.93;;;;;;;4.39;100.00;102096.56;4932071;28;20191;-73
2024/01/26 02:40:54;;;;;;;29.70;7.63;;;;;;;4.41;100.00;102096.41;4938852;28;20031;-73
2024/01/26 02:43:20;;;;;;;31.15;7.75;;;;;;;4.41;100.00;102092.94;4941112;28;20440;-73
2024/01/26 02:45:47;;;;;;;23.73;6.85;;;;;;;4.41;100.00;102085.81;4937172;28;20548;-73
2024/01/26 02:48:13;;;;;;;23.38;7.32;;;;;;;4.44;100.00;102097.84;4932005;28;20118;-73
2024/01/26 02:50:39;;;;;;;33.00;6.93;;;;;;;4.44;100.00;102096.00;4931123;28;20039;-73
2024/01/26 02:53:05;;;;;;;26.83;6.50;;;;;;;4.46;100.00;102101.91;4935266;28;20386;-73
2024/01/26 02:55:31;;;;;;;28.98;6.93;;;;;;;4.46;100.00;102093.97;4934844;28;20105;-71
2024/01/26 02:57:57;;;;;;;21.42;6.63;;;;;;;4.47;100.00;102082.38;4935572;28;20046;-73
2024/01/26 03:00:22;;;;;;;24.65;7.28;;;;;;;4.50;100.00;102086.44;4939209;28;20039;-72
2024/01/26 03:02:48;;;;;;;25.05;6.65;;;;;;;4.50;100.00;102075.84;4934178;28;20127;-73
2024/01/26 03:05:14;;;;;;;27.90;6.57;;;;;;;4.51;100.00;102067.66;4933145;28;20043;-73
2024/01/26 03:07:40;;;;;;;33.22;7.53;;;;;;;4.51;100.00;102057.06;4935075;28;20067;-72
2024/01/26 03:10:06;;;;;;;32.17;7.03;;;;;;;4.53;100.00;102054.19;4933414;28;20833;-72
2024/01/26 03:12:33;;;;;;;;;;;;;;;4.55;100.00;102053.00;4924026;29;20065;-72
2024/01/26 03:15:00;;;;;;;26.20;8.02;;;;;;;4.57;100.00;102045.66;4923450;28;19918;-72
2024/01/26 03:17:27;;;;;;;29.40;7.80;;;;;;;4.58;100.00;102047.28;4944067;28;20061;-72
2024/01/26 03:19:52;;;;;;;39.70;8.38;;;;;;;4.60;100.00;102037.28;4938846;28;20481;-71
2024/01/26 03:22:18;;;;;;;30.70;8.20;;;;;;;4.61;100.00;102024.88;4940428;28;20043;-73
2024/01/26 03:24:49;;;;;;;25.55;6.75;;;;;;;4.63;100.00;102017.53;4945282;28;21027;-71
2024/01/26 03:27:15;;;;;;;26.63;7.05;;;;;;;4.65;100.00;102012.81;4944535;28;20039;-72
2024/01/26 03:29:40;;;;;;;31.90;7.45;;;;;;;4.66;100.00;102011.81;4934435;28;20089;-71
2024/01/26 03:32:06;;;;;;;39.97;8.18;;;;;;;4.65;100.00;102016.28;4941420;28;20098;-72
2024/01/26 03:34:32;;;;;;;34.67;8.70;;;;;;;4.69;100.00;102008.78;4939265;28;20067;-74
2024/01/26 03:36:57;;;;;;;34.53;8.63;;;;;;;4.70;100.00;102012.25;4934349;28;20035;-71
2024/01/26 03:39:23;;;;;;;29.25;8.50;;;;;;;4.73;100.00;102011.81;4922989;29;20412;-71
2024/01/26 03:41:49;;;;;;;27.50;8.10;;;;;;;4.76;100.00;102025.53;4935133;28;20473;-72
2024/01/26 03:44:15;;;;;;;29.20;7.93;;;;;;;4.79;100.00;102021.66;4937409;28;20035;-71
2024/01/26 03:46:42;;;;;;;29.92;8.25;;;;;;;4.79;100.00;102019.00;4938686;28;20054;-72
2024/01/26 03:49:09;;;;;;;29.77;8.05;;;;;;;4.81;100.00;102022.25;4942559;28;20028;-73
2024/01/26 03:51:38;;;;;;;31.40;8.00;;;;;;;4.83;100.00;102022.91;4938959;28;20596;-72
2024/01/26 03:54:05;;;;;;;35.75;9.13;;;;;;;4.84;100.00;102019.22;4931760;28;20079;-71
2024/01/26 03:56:31;;;;;;;31.40;7.75;;;;;;;4.84;100.00;102012.06;4939179;28;20027;-73
2024/01/26 03:58:56;;;;;;;33.75;8.85;;;;;;;4.84;100.00;102009.41;4925339;28;20042;-72
2024/01/26 04:01:22;;;;;;;32.97;8.35;;;;;;;4.86;100.00;102007.38;4937966;28;20039;-73
2024/01/26 04:03:48;;;;;;;28.15;8.82;;;;;;;4.88;100.00;101996.56;4940410;28;20038;-73
2024/01/26 04:06:13;;;;;;;25.58;7.50;;;;;;;4.87;100.00;101995.72;4934393;28;20035;-72
2024/01/26 04:08:39;;;;;;;29.00;8.07;;;;;;;4.88;100.00;101993.91;4928739;29;20500;-71
2024/01/26 04:11:05;;;;;;;32.60;8.32;;;;;;;4.89;100.00;101990.25;4934048;28;20050;-73
2024/01/26 04:13:31;;;;;;;29.95;8.93;;;;;;;4.90;100.00;101992.69;4937811;28;20042;-71
2024/01/26 04:15:56;;;;;;;26.10;8.45;;;;;;;4.91;100.00;101993.50;4937978;28;20073;-72
2024/01/26 04:18:22;;;;;;;29.60;8.95;;;;;;;4.91;100.00;101991.66;4931165;28;20302;-74
2024/01/26 04:20:49;;;;;;;35.17;9.20;;;;;;;4.93;100.00;101972.88;4934123;28;20485;-73
2024/01/26 04:23:15;;;;;;;29.02;8.30;;;;;;;4.95;100.00;101967.38;4938823;28;20420;-73
2024/01/26 04:25:41;;;;;;;34.47;8.38;;;;;;;4.96;100.00;101966.38;4949875;28;20050;-71
2024/01/26 04:28:07;;;;;;;26.10;8.90;;;;;;;4.96;100.00;101956.56;4939208;28;20035;-71
2024/01/26 04:30:34;;;;;;;31.08;8.48;;;;;;;4.98;100.00;101957.16;4939528;28;20058;-71
2024/01/26 04:33:01;;;;;;;36.20;9.90;;;;;;;4.99;100.00;101956.13;4934030;28;20059;-71
2024/01/26 04:35:27;;;;;;;29.10;9.40;;;;;;;5.03;100.00;101943.28;4936425;28;20056;-72
2024/01/26 04:37:53;;;;;;;32.60;8.65;;;;;;;5.04;100.00;101948.41;4938300;28;20121;-72
2024/01/26 04:40:19;;;;;;;33.40;10.02;;;;;;;5.08;100.00;101946.13;4930143;29;20031;-71
2024/01/26 04:42:45;;;;;;;38.72;9.63;;;;;;;5.08;100.00;101933.69;4941594;28;20109;-72
2024/01/26 04:45:10;;;;;;;27.63;8.30;;;;;;;5.10;100.00;101926.34;4934583;28;20051;-73
2024/01/26 04:47:36;;;;;;;38.38;9.40;;;;;;;5.11;100.00;101920.00;4933992;28;20059;-73
2024/01/26 04:50:02;;;;;;;32.50;9.40;;;;;;;5.14;100.00;101919.59;4936792;28;20058;-72
2024/01/26 04:52:28;;;;;;;32.55;9.18;;;;;;;5.16;100.00;101912.25;4935268;28;20027;-71
2024/01/26 04:54:54;;;;;;;35.00;10.30;;;;;;;5.18;100.00;101904.88;4920263;28;20055;-71
2024/01/26 04:57:20;;;;;;;36.63;10.23;;;;;;;5.19;100.00;101906.50;4922315;29;20556;-73
2024/01/26 04:59:46;;;;;;;34.85;10.07;;;;;;;5.24;100.00;101915.72;4938239;28;20046;-71
2024/01/26 05:02:11;;;;;;;38.38;11.02;;;;;;;5.25;100.00;101904.06;4941574;28;20074;-72
2024/01/26 05:04:37;;;;;;;36.17;11.07;;;;;;;5.27;100.00;101900.16;4926638;29;20552;-73
2024/01/26 05:07:03;;;;;;;42.67;11.90;;;;;;;5.30;100.00;101901.63;4941531;28;20062;-71
2024/01/26 05:09:28;;;;;;;33.03;10.95;;;;;;;5.32;100.00;101894.25;4939508;28;20039;-72
2024/01/26 05:11:54;;;;;;;39.13;10.85;;;;;;;5.33;100.00;101883.41;4944170;28;20066;-72
2024/01/26 05:14:21;;;;;;;41.75;10.40;;;;;;;5.37;100.00;101875.84;4943039;28;20058;-71
2024/01/26 05:16:47;;;;;;;38.45;10.82;;;;;;;5.36;100.00;101872.38;4940781;28;20474;-72
2024/01/26 05:19:13;;;;;;;41.58;12.80;;;;;;;5.39;100.00;101868.50;4920998;28;20494;-72
2024/01/26 05:21:40;;;;;;;40.53;11.55;;;;;;;5.41;100.00;101856.63;4921621;29;20110;-72
2024/01/26 05:24:06;;;;;;;38.05;11.60;;;;;;;5.44;100.00;101858.06;4916040;28;20043;-72
2024/01/26 05:26:31;;;;;;;43.05;12.20;;;;;;;5.47;100.00;101849.66;4939014;28;20039;-72
2024/01/26 05:28:57;;;;;;;47.35;12.77;;;;;;;5.50;100.00;101851.91;4932921;28;20131;-71
2024/01/26 05:31:22;;;;;;;44.63;12.70;;;;;;;5.54;100.00;101839.00;4939530;28;20416;-71
2024/01/26 05:33:48;;;;;;;45.42;12.35;;;;;;;5.56;100.00;101827.19;4937820;28;20062;-72
2024/01/26 05:36:14;;;;;;;51.65;12.85;;;;;;;5.59;100.00;101816.09;4935643;28;20047;-72
2024/01/26 05:38:39;;;;;;;44.80;12.95;;;;;;;5.59;100.00;101816.09;4943493;28;20031;-71
2024/01/26 05:41:05;;;;;;;49.75;13.13;;;;;;;5.62;100.00;101818.38;4938426;28;20197;-71
2024/01/26 05:43:30;;;;;;;51.47;14.95;;;;;;;5.64;100.00;101816.31;4942461;28;20038;-73
2024/01/26 05:45:56;;;;;;;42.15;12.40;;;;;;;5.65;100.00;101815.28;4931942;28;20032;-72
2024/01/26 05:48:22;;;;;;;48.45;14.45;;;;;;;5.68;100.00;101800.72;4930027;28;20035;-69
2024/01/26 05:50:48;;;;;;;53.80;14.10;;;;;;;5.67;100.00;101793.78;4939094;28;20046;-72
2024/01/26 05:53:13;;;;;;;53.88;15.43;;;;;;;5.72;100.00;101792.13;4919943;28;20086;-71
2024/01/26 05:55:39;;;;;;;47.65;13.57;;;;;;;5.73;100.00;101785.78;4921151;29;20039;-73
2024/01/26 05:58:05;;;;;;;41.35;14.07;;;;;;;5.75;100.00;101799.69;4932052;28;20039;-72
2024/01/26 06:00:31;;;;;;;43.78;12.50;;;;;;;5.78;100.00;101789.66;4944311;28;20035;-72
2024/01/26 06:02:56;;;;;;;44.60;12.25;;;;;;;5.80;100.00;101784.94;4936079;28;20120;-72
2024/01/26 06:05:22;;;;;;;40.72;12.40;;;;;;;5.81;100.00;101779.41;4939437;28;20035;-72
2024/01/26 06:07:48;;;;;;;39.03;11.88;;;;;;;5.83;100.00;101777.38;4939258;28;20035;-72
2024/01/26 06:10:13;;;;;;;38.20;12.48;;;;;;;5.85;100.00;101780.63;4935218;28;20128;-72
2024/01/26 06:12:40;;;;;;;42.75;12.27;;;;;;;5.85;100.00;101767.34;4939534;28;20489;-73
2024/01/26 06:15:10;;;;;;;42.83;12.93;;;;;;;5.88;100.00;101760.78;4921111;28;20042;-72
2024/01/26 06:17:35;;;;;;;40.42;12.00;;;;;;;5.90;100.00;101758.72;4936046;28;20485;-73
2024/01/26 06:20:05;;;;;;;36.83;12.65;;;;;;;5.92;100.00;101756.69;4924781;28;20046;-72
2024/01/26 06:22:31;;;;;;;42.95;12.88;;;;;;;5.94;100.00;101749.31;4939075;28;20053;-72
2024/01/26 06:24:57;;;;;;;;;;;;;;;5.94;100.00;101733.34;4935420;28;20031;-72
2024/01/26 06:27:22;;;;;;;41.70;10.65;;;;;;;5.92;100.00;101730.09;4934206;28;19925;-71
2024/01/26 06:29:48;;;;;;;36.58;12.10;;;;;;;5.94;100.00;101741.34;4929903;28;20094;-71
2024/01/26 06:32:16;;;;;;;36.58;10.82;;;;;;;5.94;100.00;101741.34;4934483;28;20031;-71
2024/01/26 06:34:42;;;;;;;40.85;12.25;;;;;;;5.97;100.00;101727.63;4935144;28;20035;-70
2024/01/26 06:37:07;;;;;;;36.20;12.18;;;;;;;5.98;100.00;101737.22;4914959;28;20043;-70
2024/01/26 06:39:33;;;;;;;40.42;10.65;;;;;;;5.97;100.00;101738.25;4914255;29;20063;-69
2024/01/26 06:41:59;;;;;;;32.33;11.20;;;;;;;6.00;100.00;101732.50;4932811;28;20375;-72
2024/01/26 06:44:24;;;;;;;36.28;11.38;;;;;;;5.99;100.00;101709.59;4939719;28;20160;-72
2024/01/26 06:46:50;;;;;;;39.00;10.65;;;;;;;6.01;100.00;101712.84;4939320;28;20035;-71
2024/01/26 06:49:16;;;;;;;40.08;12.45;;;;;;;6.00;100.00;101698.75;4934891;28;20840;-71
2024/01/26 06:51:42;;;;;;;40.50;11.82;;;;;;;6.02;100.00;101703.84;4932435;28;20047;-71
2024/01/26 06:54:07;;;;;;;40.65;11.52;;;;;;;6.03;100.00;101705.50;4930361;28;20514;-71
2024/01/26 06:56:33;;;;;;;42.03;12.00;;;;;;;6.02;100.00;101688.69;4929808;28;20039;-72
2024/01/26 06:58:59;;;;;;;37.25;11.93;;;;;;;6.05;100.00;101681.34;4919561;29;20039;-71
2024/01/26 07:01:25;;;;;;;36.00;11.15;;;;;;;6.05;100.00;101668.84;4924404;28;20134;-71
2024/01/26 07:03:51;;;;;;;34.97;10.77;;;;;;;6.03;100.00;101657.63;4926924;29;20827;-71
2024/01/26 07:06:16;;;;;;;46.00;12.13;;;;;;;6.06;100.00;101651.06;4941779;28;20086;-71
2024/01/26 07:08:42;;;;;;;35.45;12.57;;;;;;;6.05;100.00;101649.44;4940681;28;20125;-71
2024/01/26 07:11:08;;;;;;;35.00;11.82;;;;;;;6.06;100.00;101646.56;4938267;28;20063;-70
2024/01/26 07:13:33;;;;;;;43.72;13.38;;;;;;;6.08;100.00;101649.78;4940513;28;20035;-71
2024/01/26 07:15:59;;;;;;;34.13;12.48;;;;;;;6.10;100.00;101645.09;4932305;28;20122;-72
2024/01/26 07:18:25;;;;;;;43.40;13.13;;;;;;;6.13;100.00;101647.31;4919781;28;20512;-72
2024/01/26 07:20:50;;;;;;;37.17;11.60;;;;;;;6.14;100.00;101648.13;4937124;28;21038;-72
2024/01/26 07:23:16;;;;;;;37.40;11.63;;;;;;;6.14;100.00;101664.88;4936546;28;20049;-72
2024/01/26 07:25:42;;;;;;;36.42;12.35;;;;;;;6.15;100.00;101650.56;4916181;29;20063;-72
2024/01/26 07:28:08;;;;;;;43.38;13.23;;;;;;;6.17;100.00;101648.50;4936426;28;20039;-72
2024/01/26 07:30:33;;;;;;;41.15;12.73;;;;;;;6.20;100.00;101631.28;4933779;28;20042;-72
2024/01/26 07:32:59;;;;;;;42.22;12.23;;;;;;;6.22;100.00;101619.38;4935264;28;20699;-72
2024/01/26 07:35:24;;;;;;;38.65;13.48;;;;;;;6.24;100.00;101616.53;4934995;28;20118;-72
2024/01/26 07:37:50;;;;;;;39.85;12.32;;;;;;;6.26;100.00;101615.28;4933880;28;20521;-72
2024/01/26 07:40:16;;;;;;;39.30;14.55;;;;;;;6.29;100.00;101596.19;4924322;28;20707;-71
2024/01/26 07:42:42;;;;;;;38.35;12.77;;;;;;;6.33;100.00;101590.44;4920218;29;20070;-71
2024/01/26 07:45:08;;;;;;;44.22;15.20;;;;;;;6.35;100.00;101581.19;4931597;28;20046;-71
2024/01/26 07:47:37;;;;;;;42.35;14.40;;;;;;;6.40;100.00;101577.88;4936629;28;20046;-71
2024/01/26 07:50:04;;;;;;;35.53;12.80;;;;;;;6.42;100.00;101583.78;4939403;28;20040;-72
2024/01/26 07:52:29;;;;;;;38.63;14.40;;;;;;;6.46;100.00;101590.31;4943345;28;20050;-72
2024/01/26 07:54:55;;;;;;;40.03;13.88;;;;;;;6.49;100.00;101576.56;4936843;28;20121;-71
2024/01/26 07:57:21;;;;;;;37.88;14.13;;;;;;;6.54;100.00;101566.88;4933533;28;20192;-72
2024/01/26 07:59:48;;;;;;;34.35;13.80;;;;;;;6.59;100.00;101560.91;4929496;28;20513;-70
2024/01/26 08:02:14;;;;;;;45.72;17.27;;;;;;;6.69;100.00;101550.50;4914347;28;20493;-72
2024/01/26 08:04:39;;;;;;;44.47;15.88;;;;;;;6.77;100.00;101536.91;4939177;28;20036;-71
2024/01/26 08:07:05;;;;;;;40.70;16.25;;;;;;;6.81;100.00;101535.41;4938423;28;20035;-71
2024/01/26 08:09:31;;;;;;;43.60;16.08;;;;;;;6.89;100.00;101533.47;4946439;28;20687;-71
2024/01/26 08:11:57;;;;;;;41.55;17.67;;;;;;;6.95;100.00;101528.06;4937668;28;20047;-73
2024/01/26 08:14:22;;;;;;;45.03;19.08;;;;;;;7.03;100.00;101529.59;4932695;28;20118;-72
2024/01/26 08:16:48;;;;;;;42.33;16.48;;;;;;;7.10;100.00;101522.31;4933565;28;20493;-72
2024/01/26 08:19:14;;;;;;;41.53;16.38;;;;;;;7.13;100.00;101508.56;4940855;28;20043;-73
2024/01/26 08:21:40;;;;;;;38.97;16.95;;;;;;;7.20;100.00;101514.59;4946486;28;20524;-72
2024/01/26 08:24:06;;;;;;;40.38;16.48;;;;;;;7.27;100.00;101517.97;4934655;28;20039;-73
2024/01/26 08:26:32;;;;;;;35.67;15.43;;;;;;;7.32;100.00;101512.78;4936273;28;20114;-72
2024/01/26 08:28:58;;;;;;;35.30;16.10;;;;;;;7.39;100.00;101507.34;4925687;29;20122;-72
2024/01/26 08:31:23;;;;;;;40.55;16.83;;;;;;;7.44;100.00;101483.47;4933324;28;20039;-71
2024/01/26 08:33:49;;;;;;;32.10;14.98;;;;;;;7.46;100.00;101483.25;4935693;28;20035;-71
2024/01/26 08:36:15;;;;;;;32.13;14.93;;;;;;;7.52;100.00;101475.16;4949510;28;20047;-71
2024/01/26 08:38:41;;;;;;;33.25;14.68;;;;;;;7.60;100.00;101463.31;4935885;28;20031;-71
2024/01/26 08:41:07;;;;;;;34.53;14.45;;;;;;;7.64;100.00;101451.13;4942153;28;20043;-71
2024/01/26 08:43:33;;;;;;;31.05;13.98;;;;;;;7.69;100.00;101439.78;4945978;28;20859;-72
2024/01/26 08:45:58;;;;;;;30.70;14.82;;;;;;;7.73;100.00;101427.63;4923615;29;20051;-71
2024/01/26 08:48:24;;;;;;;35.72;16.25;;;;;;;7.73;100.00;101425.75;4927483;28;20035;-70
2024/01/26 08:50:50;;;;;;;31.88;15.75;;;;;;;7.79;100.00;101414.16;4940931;28;20035;-73
2024/01/26 08:53:16;;;;;;;34.42;16.00;;;;;;;7.82;100.00;101412.88;4939729;28;20046;-71
2024/01/26 08:55:42;;;;;;;39.00;15.38;;;;;;;7.85;100.00;101415.88;4942728;28;20111;-72
2024/01/26 08:58:07;;;;;;;32.28;14.77;;;;;;;7.88;100.00;101411.94;4925913;29;20035;-70
2024/01/26 09:00:35;;;;;;;34.03;16.17;;;;;;;7.91;100.00;101406.13;4913015;28;20050;-71
2024/01/26 09:03:02;;;;;;;35.70;14.70;;;;;;;7.93;100.00;101402.19;4938082;28;20051;-71
2024/01/26 09:05:29;;;;;;;32.75;16.80;;;;;;;7.94;100.00;101409.13;4931332;28;20057;-72
2024/01/26 09:07:55;;;;;;;32.47;15.27;;;;;;;7.97;100.00;101391.03;4937253;28;20442;-72
2024/01/26 09:10:23;;;;;;;30.95;14.48;;;;;;;7.97;100.00;101389.19;4938595;28;20036;-71
2024/01/26 09:12:49;;;;;;;33.38;15.93;;;;;;;7.98;100.00;101384.66;4939692;28;20068;-72
2024/01/26 09:15:15;;;;;;;32.28;15.27;;;;;;;7.99;100.00;101383.59;4931171;28;20543;-71
2024/01/26 09:17:41;;;;;;;28.38;14.68;;;;;;;7.99;100.00;101388.94;4943246;28;20027;-71
2024/01/26 09:20:07;;;;;;;28.77;14.80;;;;;;;8.01;100.00;101384.19;4933219;28;20515;-70
2024/01/26 09:22:33;;;;;;;;;;;;;;;8.04;100.00;101365.03;4937689;28;20078;-70
2024/01/26 09:24:59;;;;;;;29.13;13.27;;;;;;;8.04;100.00;101373.84;4932671;28;20399;-71
2024/01/26 09:27:25;;;;;;;34.00;14.48;;;;;;;8.04;100.00;101357.84;4925320;28;20031;-72
2024/01/26 09:29:51;;;;;;;25.08;12.73;;;;;;;8.05;100.00;101340.78;4937964;28;20031;-71
2024/01/26 09:32:17;;;;;;;26.85;13.10;;;;;;;8.03;100.00;101336.75;4933611;28;20135;-72
2024/01/26 09:34:44;;;;;;;22.92;12.02;;;;;;;8.06;100.00;101333.59;4937530;28;20065;-71
2024/01/26 09:37:10;;;;;;;23.42;11.93;;;;;;;8.06;100.00;101328.25;4943552;28;20453;-72
2024/01/26 09:39:35;;;;;;;26.55;11.57;;;;;;;8.10;100.00;101340.09;4938646;28;20100;-72
2024/01/26 09:42:01;;;;;;;23.55;12.32;;;;;;;8.14;100.00;101327.91;4944173;28;20036;-72
2024/01/26 09:44:27;;;;;;;19.17;10.95;;;;;;;8.12;100.00;101314.78;4934939;28;20043;-70
2024/01/26 09:46:53;;;;;;;19.67;10.65;;;;;;;8.13;100.00;101316.41;4941185;28;20047;-72
2024/01/26 09:49:20;;;;;;;19.92;10.55;;;;;;;8.16;100.00;101315.13;4942127;28;20710;-72
2024/01/26 09:51:46;;;;;;;22.63;10.80;;;;;;;8.15;100.00;101311.63;4939951;28;20031;-72
2024/01/26 09:54:13;;;;;;;18.50;10.10;;;;;;;8.19;100.00;101309.28;4940474;28;20043;-72
2024/01/26 09:56:38;;;;;;;19.65;10.38;;;;;;;8.18;100.00;101297.00;4936047;28;20051;-72
2024/01/26 09:59:05;;;;;;;15.80;9.57;;;;;;;8.19;100.00;101293.28;4935630;28;20039;-72
2024/01/26 10:01:33;;;;;;;18.52;10.05;;;;;;;8.22;100.00;101292.81;4935478;28;20051;-72
2024/01/26 10:03:58;;;;;;;19.25;10.57;;;;;;;8.25;100.00;101295.00;4948864;28;20051;-71
2024/01/26 10:06:24;;;;;;;18.02;9.85;;;;;;;8.28;100.00;101302.53;4900926;28;20065;-72
2024/01/26 10:08:50;;;;;;;17.08;9.50;;;;;;;8.29;100.00;101292.66;4932975;28;20884;-72
2024/01/26 10:11:16;;;;;;;16.25;9.45;;;;;;;8.30;100.00;101295.09;4938320;28;20039;-72
2024/01/26 10:13:42;;;;;;;16.50;9.73;;;;;;;8.33;100.00;101288.44;4920171;29;20339;-72
2024/01/26 10:16:11;;;;;;;19.30;9.45;;;;;;;8.35;100.00;101281.03;4934829;28;20130;-72
2024/01/26 10:18:44;;;;;;;13.23;8.40;;;;;;;8.36;100.00;101278.16;4933126;28;20062;-72
2024/01/26 10:21:11;;;;;;;14.45;8.15;;;;;;;8.40;100.00;101270.44;4922430;29;20050;-73
2024/01/26 10:23:37;;;;;;;12.65;7.25;;;;;;;8.43;100.00;101260.13;4935319;28;20050;-72
2024/01/26 10:26:03;;;;;;;11.85;7.82;;;;;;;8.44;100.00;101253.72;4938639;28;20031;-72
2024/01/26 10:28:28;;;;;;;12.60;7.03;;;;;;;8.48;100.00;101254.88;4932949;28;20035;-72
2024/01/26 10:30:54;;;;;;;12.27;7.28;;;;;;;8.49;100.00;101245.00;4921327;29;20035;-72
2024/01/26 10:33:22;;;;;;;13.23;7.10;;;;;;;8.54;100.00;101238.94;4937361;28;20039;-71
2024/01/26 10:35:50;;;;;;;10.50;6.72;;;;;;;8.58;100.00;101243.53;4939137;28;20470;-72
2024/01/26 10:38:16;;;;;;;9.43;6.57;;;;;;;8.61;100.00;101242.25;4902211;28;20444;-72
2024/01/26 10:40:45;;;;;;;10.43;6.30;;;;;;;8.63;100.00;101234.78;4937968;28;20043;-72
2024/01/26 10:43:12;;;;;;;9.68;6.43;;;;;;;8.65;100.00;101228.13;4937850;28;20049;-71
2024/01/26 10:45:38;;;;;;;10.13;6.28;;;;;;;8.66;100.00;101228.94;4936236;28;20040;-69
2024/01/26 10:48:09;;;;;;;10.02;6.05;;;;;;;8.67;100.00;101225.22;4915378;29;20374;-71
2024/01/26 10:50:36;;;;;;;7.82;5.35;;;;;;;8.68;100.00;101221.53;4937208;28;20145;-70
2024/01/26 10:53:05;;;;;;;7.45;4.90;;;;;;;8.74;100.00;101217.88;4936796;28;20406;-72
2024/01/26 10:55:31;;;;;;;6.95;4.80;;;;;;;8.75;100.00;101203.47;4933952;28;20130;-71
2024/01/26 10:58:00;;;;;;;5.50;3.90;;;;;;;8.78;100.00;101205.63;4945712;28;20054;-72
2024/01/26 11:00:26;;;;;;;7.28;4.35;;;;;;;8.79;100.00;101193.88;4937225;28;20042;-71
2024/01/26 11:02:53;;;;;;;6.50;4.03;;;;;;;8.81;100.00;101183.78;4936735;28;20104;-71
2024/01/26 11:05:18;;;;;;;7.00;4.40;;;;;;;8.83;100.00;101187.00;4940571;28;20075;-72
2024/01/26 11:07:44;;;;;;;6.00;4.35;;;;;;;8.86;100.00;101181.16;4942023;28;20526;-72
2024/01/26 11:10:20;;;;;;;8.15;4.13;;;;;;;8.88;100.00;101173.72;4940959;28;20482;-73